首页
METAR-TAF:

METAR-TAF

机场 :

Hermiston Municipal Airport

Hermiston, 俄勒冈州, 美国

纬度: 45-49-33N, 经度: 119-15-40W, 海拔: 194米

当前天气观测

该预报发布于15分钟前的05:53 UTC
静风
温度 -3°C
湿度 93%
气压 1007 hPa
能見度: 0.4公里
冻雾

METAR: KHRI 160553Z AUTO 00000KT 1/4SM FZFG VV002 M03/M04 A2975 RMK AO2 SLP081 I1001 I6002 T10331039 10017 21050 53004

时间: 22:08 (06:08 UTC)


TAF: 丢失

超过4000个机场的气象观测和天气预报(METAR&TAF报告)。

可查询的气象台以黄色和红色小点在地图上表示。

将鼠标移到小点上方,可查看气象台名称。

然后点击查看天气观测和预报。

如需切换地图:点击带黑十字的绿色按钮放大地图;点击带横线的绿色按钮缩小地图;或者点击绿色箭头查看邻近地区的地图。


METAR-TAF: